Time;durP1;ratioP1;P1;durP2;ratioP2;P2;SDS_P1;SDS_P2;PMS_P1;PMS_P2;Temp;Humidity;BMP_temperature;BMP_pressure;BME280_temperature;BME280_humidity;BME280_pressure;Samples;Min_cycle;Max_cycle;Signal;HPM_P1;HPM_P2
2021/10/23 00:00:07;;;;;;;50.60;32.28;;;;;;;;;;5036697;28;20442;-82
2021/10/23 00:02:33;;;;;;;51.20;33.15;;;;;;;;;;5037215;28;20026;-82
2021/10/23 00:04:59;;;;;;;50.58;33.95;;;;;;;;;;5037111;28;20367;-82
2021/10/23 00:07:25;;;;;;;51.25;34.17;;;;;;;;;;5036816;28;20289;-82
2021/10/23 00:09:51;;;;;;;46.83;32.65;;;;;;;;;;5036815;28;20022;-82
2021/10/23 00:12:17;;;;;;;51.97;33.55;;;;;;;;;;5019180;28;20034;-82
2021/10/23 00:14:43;;;;;;;48.08;33.17;;;;;;;;;;5036717;28;20027;-82
2021/10/23 00:17:09;;;;;;;45.83;30.95;;;;;;;;;;5036643;28;20025;-82
2021/10/23 00:19:35;;;;;;;44.33;28.90;;;;;;;;;;5036760;28;20055;-82
2021/10/23 00:22:03;;;;;;;45.25;29.33;;;;;;;;;;5036842;28;20457;-82
2021/10/23 00:24:29;;;;;;;50.38;32.05;;;;;;;;;;5019383;28;20040;-82
2021/10/23 00:26:55;;;;;;;49.38;31.02;;;;;;;;;;5036722;28;20052;-82
2021/10/23 00:29:21;;;;;;;59.05;34.75;;;;;;;;;;5036408;28;20053;-82
2021/10/23 00:31:47;;;;;;;64.50;35.28;;;;;;;;;;5019052;28;20358;-82
2021/10/23 00:34:13;;;;;;;63.13;34.40;;;;;;;;;;5036517;28;20051;-82
2021/10/23 00:39:43;;;;;;;61.35;35.15;;;;;;;;;;5036539;28;20036;-82
2021/10/23 00:42:09;;;;;;;56.67;34.78;;;;;;;;;;5019033;28;20059;-82
2021/10/23 00:44:36;;;;;;;58.72;34.08;;;;;;;;;;5040349;28;20017;-82
2021/10/23 00:47:07;;;;;;;54.63;33.10;;;;;;;;;;5040313;28;20018;-82
2021/10/23 00:49:33;;;;;;;53.47;32.95;;;;;;;;;;5040067;28;20109;-82
2021/10/23 00:52:02;;;;;;;61.03;36.60;;;;;;;;;;5039914;28;20316;-82
2021/10/23 00:54:29;;;;;;;63.72;37.15;;;;;;;;;;5039941;28;20033;-82
2021/10/23 00:56:55;;;;;;;64.03;37.45;;;;;;;;;;5022245;28;20120;-82
2021/10/23 00:59:21;;;;;;;66.50;38.00;;;;;;;;;;5039687;28;20029;-82
2021/10/23 01:01:48;;;;;;;69.45;39.70;;;;;;;;;;5022029;28;20404;-81
2021/10/23 01:04:15;;;;;;;71.65;41.30;;;;;;;;;;5022293;28;20021;-84
2021/10/23 01:06:59;;;;;;;73.10;40.65;;;;;;;;;;5039889;28;20037;-85
2021/10/23 01:09:25;;;;;;;71.38;39.67;;;;;;;;;;5040237;28;20041;-84
2021/10/23 01:11:52;;;;;;;71.95;42.03;;;;;;;;;;5039885;28;20058;-84
2021/10/23 01:14:22;;;;;;;69.72;41.63;;;;;;;;;;5022379;28;20024;-84
2021/10/23 01:16:49;;;;;;;69.82;41.85;;;;;;;;;;5040151;28;20034;-84
2021/10/23 01:19:16;;;;;;;65.82;41.33;;;;;;;;;;5022249;28;20029;-83
2021/10/23 01:21:44;;;;;;;64.97;40.60;;;;;;;;;;5039702;28;20071;-84
2021/10/23 01:24:10;;;;;;;65.53;41.30;;;;;;;;;;5039945;28;20045;-84
2021/10/23 01:26:36;;;;;;;63.38;39.70;;;;;;;;;;5039852;28;20053;-84
2021/10/23 01:29:03;;;;;;;60.13;39.53;;;;;;;;;;5021916;28;20068;-85
2021/10/23 01:31:30;;;;;;;55.75;39.08;;;;;;;;;;5022043;28;20035;-84
2021/10/23 01:33:56;;;;;;;52.47;37.15;;;;;;;;;;5039929;28;20021;-84
2021/10/23 01:36:23;;;;;;;52.70;36.90;;;;;;;;;;5022286;28;20030;-84
2021/10/23 01:38:49;;;;;;;50.45;36.53;;;;;;;;;;5039513;28;20025;-84
2021/10/23 01:41:15;;;;;;;51.75;35.35;;;;;;;;;;5039238;28;20033;-84
2021/10/23 01:43:41;;;;;;;45.97;33.05;;;;;;;;;;5021828;28;20025;-84
2021/10/23 01:46:08;;;;;;;42.60;31.73;;;;;;;;;;5039648;28;20041;-84
2021/10/23 01:48:34;;;;;;;40.10;28.55;;;;;;;;;;5039274;28;20031;-84
2021/10/23 01:51:01;;;;;;;34.25;26.13;;;;;;;;;;5039168;28;20025;-84
2021/10/23 01:56:31;;;;;;;26.45;17.42;;;;;;;;;;5039476;28;20531;-84
2021/10/23 01:58:57;;;;;;;30.48;19.17;;;;;;;;;;5038928;28;20047;-84
2021/10/23 02:01:23;;;;;;;18.08;11.98;;;;;;;;;;5021641;28;20033;-84
2021/10/23 02:03:49;;;;;;;11.70;8.73;;;;;;;;;;5039043;28;20056;-84
2021/10/23 02:06:15;;;;;;;17.55;10.57;;;;;;;;;;5039267;28;20017;-84
2021/10/23 02:09:03;;;;;;;9.98;6.82;;;;;;;;;;5021414;28;20021;-84
2021/10/23 02:11:29;;;;;;;8.55;3.88;;;;;;;;;;5038810;28;20025;-84
2021/10/23 02:13:55;;;;;;;10.52;4.20;;;;;;;;;;5038723;28;20025;-84
2021/10/23 02:16:21;;;;;;;6.75;3.75;;;;;;;;;;5038669;28;20017;-84
2021/10/23 02:18:47;;;;;;;9.00;3.17;;;;;;;;;;5038938;28;20297;-84
2021/10/23 02:21:14;;;;;;;7.03;2.13;;;;;;;;;;5020745;28;20034;-83
2021/10/23 02:23:40;;;;;;;8.38;2.10;;;;;;;;;;5038602;28;20017;-84
2021/10/23 02:26:06;;;;;;;6.28;2.08;;;;;;;;;;5021078;28;20431;-84
2021/10/23 02:28:33;;;;;;;5.93;2.05;;;;;;;;;;5020936;28;20045;-84
2021/10/23 02:30:59;;;;;;;5.22;2.10;;;;;;;;;;5038551;28;20026;-84
2021/10/23 02:33:25;;;;;;;10.30;2.17;;;;;;;;;;5038356;28;20100;-84
2021/10/23 02:35:51;;;;;;;5.43;2.38;;;;;;;;;;5038272;28;20024;-84
2021/10/23 02:38:17;;;;;;;7.00;3.35;;;;;;;;;;5038526;28;20018;-84
2021/10/23 02:40:43;;;;;;;9.18;2.47;;;;;;;;;;5038373;28;20037;-84
2021/10/23 02:43:09;;;;;;;11.40;2.60;;;;;;;;;;5038465;28;20052;-84
2021/10/23 02:45:35;;;;;;;9.98;2.60;;;;;;;;;;5038121;28;20021;-84
2021/10/23 02:48:02;;;;;;;9.50;2.35;;;;;;;;;;5020698;28;20021;-83
2021/10/23 02:50:28;;;;;;;8.35;2.65;;;;;;;;;;5020671;28;20108;-83
2021/10/23 02:52:54;;;;;;;7.60;2.10;;;;;;;;;;5020355;28;20068;-83
2021/10/23 02:55:21;;;;;;;6.45;2.25;;;;;;;;;;5020594;28;20320;-84
2021/10/23 02:57:47;;;;;;;8.00;2.45;;;;;;;;;;5037798;28;20076;-84
2021/10/23 03:00:13;;;;;;;8.88;2.40;;;;;;;;;;5037825;28;20025;-85
2021/10/23 03:02:39;;;;;;;7.93;2.20;;;;;;;;;;5037949;28;20032;-84
2021/10/23 03:05:06;;;;;;;5.25;2.17;;;;;;;;;;5037765;28;20342;-85
2021/10/23 03:07:50;;;;;;;6.97;2.33;;;;;;;;;;5020775;28;20359;-85
2021/10/23 03:10:17;;;;;;;5.20;1.75;;;;;;;;;;5037836;28;20071;-84
2021/10/23 03:12:43;;;;;;;8.63;1.98;;;;;;;;;;5037855;28;20034;-85
2021/10/23 03:15:09;;;;;;;7.50;2.15;;;;;;;;;;5037829;28;20029;-85
2021/10/23 03:17:35;;;;;;;5.95;1.70;;;;;;;;;;5037668;28;20032;-85
2021/10/23 03:20:02;;;;;;;9.43;2.30;;;;;;;;;;5020159;28;20315;-85
2021/10/23 03:25:50;;;;;;;4.85;2.30;;;;;;;;;;5037833;28;20423;-84
2021/10/23 03:28:16;;;;;;;8.98;2.50;;;;;;;;;;5037289;28;20057;-84
2021/10/23 03:30:42;;;;;;;7.28;2.42;;;;;;;;;;5037447;28;20324;-84
2021/10/23 03:33:08;;;;;;;6.07;2.20;;;;;;;;;;5037739;28;20030;-84
2021/10/23 03:35:34;;;;;;;6.28;2.00;;;;;;;;;;5037416;28;20028;-83
2021/10/23 03:38:19;;;;;;;7.15;2.20;;;;;;;;;;5019836;28;20331;-83
2021/10/23 03:40:45;;;;;;;4.93;1.55;;;;;;;;;;5037187;28;20022;-83
2021/10/23 03:43:11;;;;;;;7.05;1.80;;;;;;;;;;5019826;28;20057;-83
2021/10/23 03:45:37;;;;;;;5.85;1.70;;;;;;;;;;5020012;28;20021;-84
2021/10/23 03:48:03;;;;;;;4.28;1.65;;;;;;;;;;5019719;28;20144;-85
2021/10/23 03:50:29;;;;;;;6.93;1.60;;;;;;;;;;5019923;28;20037;-85
2021/10/23 03:53:33;;;;;;;6.60;1.70;;;;;;;;;;5037275;28;20461;-85
2021/10/23 03:55:59;;;;;;;7.28;1.55;;;;;;;;;;5037220;28;20033;-85
2021/10/23 03:58:25;;;;;;;4.82;1.40;;;;;;;;;;5037555;28;20040;-85
2021/10/23 04:00:51;;;;;;;8.35;2.05;;;;;;;;;;5037497;28;20029;-85
2021/10/23 04:03:17;;;;;;;6.55;1.80;;;;;;;;;;5019643;28;20038;-85
2021/10/23 04:05:43;;;;;;;6.57;1.38;;;;;;;;;;5037417;28;20049;-85
2021/10/23 04:14:30;;;;;;;4.95;1.67;;;;;;;;;;5037152;28;20037;-84
2021/10/23 04:16:56;;;;;;;6.43;1.85;;;;;;;;;;5037074;28;20029;-84
2021/10/23 04:19:22;;;;;;;7.65;2.10;;;;;;;;;;5040781;28;20033;-84
2021/10/23 04:21:48;;;;;;;8.20;2.20;;;;;;;;;;5040849;28;20028;-84
2021/10/23 04:24:14;;;;;;;4.32;1.70;;;;;;;;;;5023581;28;20049;-84
2021/10/23 04:26:40;;;;;;;6.55;1.77;;;;;;;;;;5040831;28;20030;-84
2021/10/23 04:29:07;;;;;;;9.38;1.85;;;;;;;;;;5023124;28;20108;-84
2021/10/23 04:31:33;;;;;;;8.27;1.88;;;;;;;;;;5040778;28;20060;-84
2021/10/23 04:34:02;;;;;;;7.32;1.83;;;;;;;;;;5040826;28;20025;-84
2021/10/23 04:36:29;;;;;;;7.85;1.60;;;;;;;;;;5040855;28;20041;-83
2021/10/23 04:38:55;;;;;;;6.50;1.77;;;;;;;;;;5040475;28;20056;-84
2021/10/23 04:41:21;;;;;;;6.88;2.03;;;;;;;;;;5040530;28;20022;-84
2021/10/23 04:43:47;;;;;;;7.47;1.80;;;;;;;;;;5040783;28;20408;-84
2021/10/23 04:46:13;;;;;;;6.60;2.33;;;;;;;;;;5022885;28;20152;-84
2021/10/23 04:48:39;;;;;;;9.57;2.55;;;;;;;;;;5022863;28;20068;-84
2021/10/23 04:51:05;;;;;;;7.55;2.80;;;;;;;;;;5022818;28;20037;-84
2021/10/23 04:53:31;;;;;;;11.45;2.72;;;;;;;;;;5040201;28;20068;-84
2021/10/23 04:55:57;;;;;;;8.48;2.72;;;;;;;;;;5022854;28;20017;-84
2021/10/23 04:58:23;;;;;;;7.47;2.30;;;;;;;;;;5022654;28;20037;-84
2021/10/23 05:00:49;;;;;;;7.22;2.50;;;;;;;;;;5040391;28;20029;-84
2021/10/23 05:03:15;;;;;;;8.10;2.10;;;;;;;;;;5040356;28;20021;-84
2021/10/23 05:05:42;;;;;;;7.90;2.47;;;;;;;;;;5040098;28;20036;-84
2021/10/23 05:08:09;;;;;;;8.25;2.20;;;;;;;;;;5040028;28;20026;-83
2021/10/23 05:10:35;;;;;;;11.20;3.00;;;;;;;;;;5022651;28;20033;-84
2021/10/23 05:13:01;;;;;;;7.90;1.92;;;;;;;;;;5022375;28;20044;-84
2021/10/23 05:15:27;;;;;;;7.63;2.20;;;;;;;;;;5040087;28;20025;-84
2021/10/23 05:17:53;;;;;;;7.70;1.70;;;;;;;;;;5039872;28;20419;-84
2021/10/23 05:20:19;;;;;;;14.63;2.55;;;;;;;;;;5021943;28;20033;-84
2021/10/23 05:22:45;;;;;;;4.30;1.80;;;;;;;;;;5039664;28;20057;-85
2021/10/23 05:25:12;;;;;;;6.70;1.88;;;;;;;;;;5039937;28;20026;-84
2021/10/23 05:27:38;;;;;;;6.05;1.50;;;;;;;;;;5039450;28;20049;-84
2021/10/23 05:30:05;;;;;;;4.63;1.48;;;;;;;;;;5039314;28;20035;-81
2021/10/23 05:32:31;;;;;;;8.98;1.75;;;;;;;;;;5039560;28;20096;-84
2021/10/23 05:34:57;;;;;;;7.03;2.00;;;;;;;;;;5039599;28;20474;-84
2021/10/23 05:37:23;;;;;;;4.40;1.48;;;;;;;;;;5039450;28;20408;-84
2021/10/23 05:39:49;;;;;;;4.88;1.48;;;;;;;;;;5039558;28;20079;-84
2021/10/23 05:42:15;;;;;;;5.28;1.30;;;;;;;;;;5039633;28;20430;-85
2021/10/23 05:44:41;;;;;;;4.22;1.15;;;;;;;;;;5025072;28;20025;-85
2021/10/23 05:47:07;;;;;;;5.50;1.50;;;;;;;;;;5002343;28;20026;-84
2021/10/23 05:49:33;;;;;;;6.70;2.00;;;;;;;;;;5018486;28;20120;-85
2021/10/23 05:52:01;;;;;;;8.07;2.42;;;;;;;;;;5039481;28;20045;-84
2021/10/23 05:57:31;;;;;;;12.68;3.65;;;;;;;;;;5039499;28;20080;-85
2021/10/23 05:59:57;;;;;;;5.82;1.83;;;;;;;;;;5037943;28;20046;-84
2021/10/23 06:02:24;;;;;;;6.93;1.45;;;;;;;;;;5021280;28;20099;-85
2021/10/23 06:04:51;;;;;;;6.70;1.80;;;;;;;;;;5019597;28;20026;-84
2021/10/23 06:07:31;;;;;;;6.22;1.45;;;;;;;;;;5001929;28;20360;-85
2021/10/23 06:09:58;;;;;;;5.28;1.60;;;;;;;;;;5019460;28;20033;-85
2021/10/23 06:12:25;;;;;;;8.88;2.75;;;;;;;;;;5019424;28;20068;-85
2021/10/23 06:14:51;;;;;;;6.35;1.70;;;;;;;;;;5001934;28;20482;-85
2021/10/23 06:17:17;;;;;;;7.88;2.33;;;;;;;;;;5018907;28;20061;-84
2021/10/23 06:19:43;;;;;;;5.85;1.85;;;;;;;;;;5001499;28;20029;-84
2021/10/23 06:22:09;;;;;;;6.22;1.80;;;;;;;;;;5001656;28;20244;-84
2021/10/23 06:27:39;;;;;;;7.60;2.00;;;;;;;;;;5038014;28;20048;-84
2021/10/23 06:30:05;;;;;;;6.53;2.15;;;;;;;;;;5038640;28;20025;-84
2021/10/23 06:32:31;;;;;;;9.93;3.60;;;;;;;;;;5038259;28;20032;-84
2021/10/23 06:34:57;;;;;;;7.70;4.03;;;;;;;;;;5020443;28;20033;-82
2021/10/23 06:37:23;;;;;;;10.30;5.57;;;;;;;;;;5038607;28;20048;-84
2021/10/23 06:39:50;;;;;;;12.00;5.78;;;;;;;;;;5037904;28;20033;-83
2021/10/23 06:42:16;;;;;;;11.30;3.92;;;;;;;;;;5037051;28;20049;-85
2021/10/23 06:44:42;;;;;;;10.77;3.80;;;;;;;;;;5038140;28;20025;-85
2021/10/23 06:47:08;;;;;;;13.18;4.85;;;;;;;;;;5037250;28;20064;-85
2021/10/23 06:49:34;;;;;;;10.68;4.63;;;;;;;;;;5038252;28;20068;-85
2021/10/23 06:52:00;;;;;;;17.27;5.45;;;;;;;;;;5037993;28;20412;-83
2021/10/23 06:57:30;;;;;;;9.73;2.90;;;;;;;;;;5025642;28;20048;-84
2021/10/23 06:59:56;;;;;;;7.68;3.03;;;;;;;;;;5025662;28;20040;-83
2021/10/23 07:02:22;;;;;;;10.63;4.43;;;;;;;;;;5031203;28;20109;-84
2021/10/23 07:04:48;;;;;;;12.02;4.30;;;;;;;;;;5036670;28;20040;-84
2021/10/23 07:07:15;;;;;;;7.38;3.40;;;;;;;;;;5037417;28;20075;-85
2021/10/23 07:09:41;;;;;;;15.38;6.72;;;;;;;;;;5037260;28;20025;-83
2021/10/23 07:12:07;;;;;;;18.75;7.60;;;;;;;;;;5012821;28;20037;-83
2021/10/23 07:14:33;;;;;;;24.50;9.02;;;;;;;;;;5032300;28;20052;-84
2021/10/23 07:16:59;;;;;;;20.83;10.88;;;;;;;;;;5000451;28;20065;-83
2021/10/23 07:19:25;;;;;;;60.22;32.97;;;;;;;;;;5000507;28;20022;-85
2021/10/23 07:21:51;;;;;;;13.55;6.32;;;;;;;;;;5017841;28;20026;-84
2021/10/23 07:27:59;;;;;;;16.80;11.57;;;;;;;;;;5017392;28;20130;-84
2021/10/23 07:30:25;;;;;;;5.28;2.25;;;;;;;;;;5007703;28;20046;-84
2021/10/23 07:32:51;;;;;;;7.15;3.80;;;;;;;;;;5018045;28;20076;-84
2021/10/23 07:35:18;;;;;;;9.70;2.90;;;;;;;;;;5017852;28;20026;-84
2021/10/23 07:37:44;;;;;;;16.05;6.90;;;;;;;;;;5017838;28;20045;-83
2021/10/23 07:40:11;;;;;;;18.38;8.70;;;;;;;;;;5017813;28;20033;-87
2021/10/23 07:42:38;;;;;;;15.15;11.75;;;;;;;;;;5000518;28;20060;-87
2021/10/23 07:45:05;;;;;;;10.38;5.10;;;;;;;;;;5017835;28;20400;-87
2021/10/23 07:47:31;;;;;;;8.13;3.28;;;;;;;;;;5017844;28;20061;-87
2021/10/23 07:49:58;;;;;;;5.70;3.70;;;;;;;;;;5030649;28;20036;-87
2021/10/23 07:52:24;;;;;;;10.85;7.32;;;;;;;;;;5039983;28;20112;-88
2021/10/23 07:57:54;;;;;;;8.82;4.05;;;;;;;;;;5041681;28;20040;-86
2021/10/23 08:00:20;;;;;;;11.45;5.75;;;;;;;;;;5024028;28;20033;-88
2021/10/23 08:02:49;;;;;;;11.57;5.47;;;;;;;;;;5041461;28;20051;-87
2021/10/23 08:05:15;;;;;;;8.98;3.55;;;;;;;;;;5041649;28;20025;-87
2021/10/23 08:07:42;;;;;;;13.98;7.45;;;;;;;;;;5023936;28;20028;-87
2021/10/23 08:10:46;;;;;;;12.48;7.20;;;;;;;;;;5023853;28;20428;-86
2021/10/23 08:13:12;;;;;;;10.88;6.63;;;;;;;;;;5041444;28;20033;-86
2021/10/23 08:15:38;;;;;;;7.75;3.35;;;;;;;;;;5041591;28;20021;-87
2021/10/23 08:18:04;;;;;;;12.50;7.47;;;;;;;;;;5040946;28;20109;-87
2021/10/23 08:20:31;;;;;;;9.93;5.50;;;;;;;;;;5023599;28;20351;-87
2021/10/23 08:26:02;;;;;;;21.77;13.07;;;;;;;;;;5040975;28;20027;-87
2021/10/23 08:28:28;;;;;;;24.50;14.75;;;;;;;;;;5023162;28;20030;-87
2021/10/23 08:30:54;;;;;;;16.08;10.98;;;;;;;;;;5040723;28;20022;-86
2021/10/23 08:33:20;;;;;;;16.95;11.27;;;;;;;;;;5023363;28;20026;-87
2021/10/23 08:35:46;;;;;;;23.58;13.13;;;;;;;;;;5040782;28;20403;-86
2021/10/23 08:38:13;;;;;;;17.48;11.95;;;;;;;;;;5041102;28;20056;-86
2021/10/23 08:40:39;;;;;;;13.10;6.93;;;;;;;;;;5023402;28;20032;-87
2021/10/23 08:43:08;;;;;;;10.98;7.65;;;;;;;;;;5040739;28;20408;-87
2021/10/23 08:45:35;;;;;;;14.20;11.02;;;;;;;;;;5041209;28;20032;-87
2021/10/23 08:48:03;;;;;;;14.75;6.03;;;;;;;;;;5040609;28;20022;-87
2021/10/23 08:50:29;;;;;;;16.95;11.70;;;;;;;;;;5023292;28;20362;-86
2021/10/23 08:52:58;;;;;;;9.18;5.38;;;;;;;;;;5040691;28;20022;-87
2021/10/23 08:55:24;;;;;;;12.50;7.55;;;;;;;;;;5022664;28;20041;-87
2021/10/23 08:57:50;;;;;;;45.63;8.43;;;;;;;;;;5022613;28;20041;-85
2021/10/23 09:00:16;;;;;;;16.70;9.07;;;;;;;;;;5040559;28;20026;-86
2021/10/23 09:02:43;;;;;;;12.77;5.97;;;;;;;;;;5040383;28;20052;-86
2021/10/23 09:05:09;;;;;;;14.15;6.25;;;;;;;;;;5040267;28;20100;-86
2021/10/23 09:07:45;;;;;;;14.23;6.30;;;;;;;;;;5022890;28;20020;-86
2021/10/23 09:10:12;;;;;;;15.65;6.63;;;;;;;;;;5022898;28;20022;-85
2021/10/23 09:12:38;;;;;;;7.15;3.72;;;;;;;;;;5022979;28;20036;-86
2021/10/23 09:15:06;;;;;;;16.80;8.80;;;;;;;;;;5040193;28;20033;-86
2021/10/23 09:17:33;;;;;;;17.80;7.60;;;;;;;;;;5022718;28;20116;-86
2021/10/23 09:20:05;;;;;;;13.60;5.78;;;;;;;;;;5040257;28;20029;-87
2021/10/23 09:22:35;;;;;;;17.25;5.50;;;;;;;;;;5039748;28;20484;-86
2021/10/23 09:25:15;;;;;;;13.50;6.07;;;;;;;;;;5039995;28;20075;-86
2021/10/23 09:27:49;;;;;;;20.30;7.05;;;;;;;;;;5039663;28;20052;-86
2021/10/23 09:30:16;;;;;;;24.35;11.30;;;;;;;;;;5022445;28;20054;-86
2021/10/23 09:32:48;;;;;;;21.85;8.45;;;;;;;;;;5021885;28;20503;-88
2021/10/23 09:35:15;;;;;;;20.17;8.30;;;;;;;;;;5040157;28;20021;-86
2021/10/23 09:37:44;;;;;;;13.43;6.20;;;;;;;;;;5040068;28;20029;-87
2021/10/23 09:40:10;;;;;;;10.20;4.10;;;;;;;;;;5039823;28;20040;-86
2021/10/23 09:42:36;;;;;;;12.48;6.88;;;;;;;;;;5039300;28;20032;-86
2021/10/23 09:45:05;;;;;;;20.58;8.75;;;;;;;;;;5039444;28;20017;-84
2021/10/23 09:47:41;;;;;;;11.07;6.30;;;;;;;;;;5022197;28;20034;-85
2021/10/23 09:50:12;;;;;;;14.13;7.53;;;;;;;;;;5039781;28;20037;-85
2021/10/23 09:53:04;;;;;;;11.65;7.63;;;;;;;;;;5039642;28;20030;-85
2021/10/23 09:58:34;;;;;;;17.13;7.15;;;;;;;;;;5039564;28;20367;-86
2021/10/23 10:01:01;;;;;;;14.13;5.88;;;;;;;;;;5039441;28;20029;-85
2021/10/23 10:03:29;;;;;;;23.17;8.57;;;;;;;;;;5039544;28;20056;-85
2021/10/23 10:05:58;;;;;;;43.33;15.90;;;;;;;;;;5039118;28;20136;-86
2021/10/23 10:08:25;;;;;;;19.83;8.45;;;;;;;;;;5021856;28;20312;-86
2021/10/23 10:10:51;;;;;;;10.02;5.70;;;;;;;;;;5038964;28;20036;-85
2021/10/23 10:13:19;;;;;;;14.88;6.75;;;;;;;;;;5039320;28;20041;-85
2021/10/23 10:15:46;;;;;;;16.08;8.73;;;;;;;;;;5038208;28;20022;-85
2021/10/23 10:18:14;;;;;;;14.80;6.75;;;;;;;;;;5039138;28;20025;-85
2021/10/23 10:20:42;;;;;;;19.05;10.70;;;;;;;;;;5039039;28;20076;-85
2021/10/23 10:23:10;;;;;;;13.82;6.97;;;;;;;;;;5038470;28;20033;-85
2021/10/23 10:25:55;;;;;;;12.82;6.97;;;;;;;;;;5038635;28;20026;-85
2021/10/23 10:28:21;;;;;;;16.17;6.35;;;;;;;;;;5038469;28;20032;-85
2021/10/23 10:30:53;;;;;;;13.90;6.75;;;;;;;;;;5038496;28;20077;-85
2021/10/23 10:33:20;;;;;;;18.63;6.72;;;;;;;;;;5020870;28;20448;-85
2021/10/23 10:36:12;;;;;;;13.77;7.28;;;;;;;;;;5038468;28;20032;-85
2021/10/23 10:44:09;;;;;;;20.98;9.75;;;;;;;;;;5038671;28;20072;-84
2021/10/23 10:46:53;;;;;;;29.05;10.40;;;;;;;;;;5038375;28;20400;-85
2021/10/23 10:49:39;;;;;;;14.18;7.93;;;;;;;;;;5020264;28;20045;-85
2021/10/23 10:52:24;;;;;;;11.82;6.22;;;;;;;;;;5038248;28;20075;-85
2021/10/23 10:55:08;;;;;;;13.23;5.70;;;;;;;;;;5038321;28;20099;-84
2021/10/23 10:57:54;;;;;;;16.52;5.57;;;;;;;;;;5037616;28;20034;-85
2021/10/23 11:00:20;;;;;;;8.40;4.82;;;;;;;;;;5038243;28;20041;-85
2021/10/23 11:02:46;;;;;;;7.88;4.45;;;;;;;;;;5038403;28;20031;-84
2021/10/23 11:05:16;;;;;;;10.57;4.78;;;;;;;;;;5038293;28;20026;-84
2021/10/23 11:08:01;;;;;;;13.52;4.68;;;;;;;;;;5020575;28;20312;-85
2021/10/23 11:13:31;;;;;;;13.23;6.47;;;;;;;;;;5038215;28;20028;-86
2021/10/23 11:15:57;;;;;;;10.00;5.05;;;;;;;;;;5020395;28;20037;-85
2021/10/23 11:18:24;;;;;;;8.73;4.35;;;;;;;;;;5037847;28;20064;-85
2021/10/23 11:20:51;;;;;;;10.60;4.97;;;;;;;;;;5037497;28;20026;-85
2021/10/23 11:23:21;;;;;;;11.82;5.45;;;;;;;;;;5037740;28;20025;-85
2021/10/23 11:25:49;;;;;;;10.00;5.07;;;;;;;;;;5037714;28;20045;-85
2021/10/23 11:28:15;;;;;;;10.50;5.53;;;;;;;;;;5037381;28;20034;-85
2021/10/23 11:30:42;;;;;;;6.32;3.92;;;;;;;;;;5016879;28;20077;-85
2021/10/23 11:33:11;;;;;;;9.65;4.18;;;;;;;;;;5035483;28;20025;-85
2021/10/23 11:35:50;;;;;;;9.25;3.53;;;;;;;;;;5037322;28;20076;-85
2021/10/23 11:38:24;;;;;;;10.55;5.93;;;;;;;;;;5020177;28;20068;-84
2021/10/23 11:40:57;;;;;;;10.40;6.07;;;;;;;;;;5037332;28;20072;-84
2021/10/23 11:43:23;;;;;;;13.68;6.05;;;;;;;;;;5037766;28;20063;-85
2021/10/23 11:45:49;;;;;;;24.55;12.02;;;;;;;;;;5037177;28;20025;-85
2021/10/23 11:48:17;;;;;;;16.67;8.48;;;;;;;;;;5037671;28;20084;-85
2021/10/23 11:50:45;;;;;;;19.85;10.32;;;;;;;;;;5037305;28;20036;-85
2021/10/23 11:53:12;;;;;;;18.38;12.30;;;;;;;;;;5019653;28;20041;-85
2021/10/23 11:56:05;;;;;;;11.27;5.65;;;;;;;;;;5020066;28;20319;-87
2021/10/23 11:58:35;;;;;;;10.35;3.45;;;;;;;;;;5037274;28;20412;-86
2021/10/23 12:01:06;;;;;;;8.43;4.65;;;;;;;;;;5019093;28;20034;-86
2021/10/23 12:03:38;;;;;;;15.05;6.35;;;;;;;;;;5018981;28;20079;-85
2021/10/23 12:06:14;;;;;;;12.25;6.20;;;;;;;;;;5037240;28;20033;-85
2021/10/23 12:08:40;;;;;;;12.00;5.20;;;;;;;;;;5019961;28;20083;-85
2021/10/23 12:11:14;;;;;;;9.98;5.13;;;;;;;;;;5037357;28;20056;-85
2021/10/23 12:13:49;;;;;;;12.20;5.40;;;;;;;;;;5037591;28;20028;-86
2021/10/23 12:16:17;;;;;;;14.73;5.32;;;;;;;;;;5037171;28;20415;-85
2021/10/23 12:18:44;;;;;;;19.33;6.07;;;;;;;;;;5037172;28;20030;-86
2021/10/23 12:21:15;;;;;;;15.52;6.40;;;;;;;;;;5037010;28;20021;-86
2021/10/23 12:23:54;;;;;;;11.98;6.70;;;;;;;;;;5037121;28;20025;-85
2021/10/23 12:26:30;;;;;;;15.25;5.38;;;;;;;;;;5036997;28;20041;-85
2021/10/23 12:29:02;;;;;;;11.68;5.18;;;;;;;;;;5019308;28;20332;-86
2021/10/23 12:31:47;;;;;;;9.80;4.38;;;;;;;;;;5037226;28;20045;-85
2021/10/23 12:34:13;;;;;;;13.85;5.72;;;;;;;;;;5037093;28;20406;-85
2021/10/23 12:36:48;;;;;;;13.13;4.50;;;;;;;;;;5037283;28;20338;-85
2021/10/23 12:39:39;;;;;;;30.98;8.27;;;;;;;;;;5021725;28;20407;-85
2021/10/23 12:42:05;;;;;;;22.42;6.15;;;;;;;;;;5023355;28;20021;-85
2021/10/23 12:44:31;;;;;;;20.17;7.65;;;;;;;;;;5040591;28;20319;-86
2021/10/23 12:46:57;;;;;;;20.77;9.18;;;;;;;;;;5040348;28;20021;-85
2021/10/23 12:49:24;;;;;;;12.85;6.40;;;;;;;;;;5040848;28;20021;-85
2021/10/23 12:51:51;;;;;;;12.93;6.05;;;;;;;;;;5040546;28;20022;-85
2021/10/23 12:54:35;;;;;;;10.45;4.95;;;;;;;;;;5040471;28;20595;-85
2021/10/23 12:57:02;;;;;;;18.00;8.57;;;;;;;;;;5040334;28;20084;-85
2021/10/23 12:59:28;;;;;;;19.98;7.88;;;;;;;;;;5022954;28;20025;-85
2021/10/23 13:01:54;;;;;;;14.75;6.63;;;;;;;;;;5022137;28;20109;-85
2021/10/23 13:04:20;;;;;;;16.67;6.65;;;;;;;;;;5040222;28;20060;-85
2021/10/23 13:06:46;;;;;;;14.07;6.22;;;;;;;;;;5040567;28;20404;-85
2021/10/23 13:09:12;;;;;;;16.08;5.80;;;;;;;;;;5006429;28;20420;-85
2021/10/23 13:11:40;;;;;;;24.30;6.03;;;;;;;;;;5039817;28;20029;-85
2021/10/23 13:14:06;;;;;;;19.48;6.20;;;;;;;;;;5039973;28;20033;-85
2021/10/23 13:16:32;;;;;;;18.63;5.88;;;;;;;;;;5040333;28;20316;-85
2021/10/23 13:18:58;;;;;;;10.30;5.70;;;;;;;;;;5022400;28;20037;-85
2021/10/23 13:21:24;;;;;;;16.17;6.78;;;;;;;;;;5040158;28;20025;-84
2021/10/23 13:23:51;;;;;;;62.30;41.38;;;;;;;;;;5021714;28;20447;-85
2021/10/23 13:26:17;;;;;;;25.63;21.05;;;;;;;;;;5021921;28;20449;-85
2021/10/23 13:28:43;;;;;;;10.20;8.27;;;;;;;;;;5039518;28;20061;-85
2021/10/23 13:31:13;;;;;;;13.77;10.57;;;;;;;;;;5039509;28;20028;-85
2021/10/23 13:33:39;;;;;;;12.98;8.02;;;;;;;;;;5022289;28;20025;-84
2021/10/23 13:36:08;;;;;;;12.63;5.35;;;;;;;;;;5021996;28;20029;-85
2021/10/23 13:38:34;;;;;;;19.60;13.70;;;;;;;;;;5039687;28;20026;-85
2021/10/23 13:41:19;;;;;;;16.02;6.22;;;;;;;;;;5039251;28;20036;-85
2021/10/23 13:43:46;;;;;;;13.95;5.57;;;;;;;;;;5039424;28;20017;-85
2021/10/23 13:46:12;;;;;;;12.93;4.85;;;;;;;;;;5039407;28;20028;-85
2021/10/23 13:48:38;;;;;;;19.63;10.77;;;;;;;;;;5039718;28;20100;-84
2021/10/23 13:51:04;;;;;;;11.93;8.25;;;;;;;;;;5021737;28;20036;-85
2021/10/23 13:53:30;;;;;;;27.23;20.85;;;;;;;;;;5039510;28;20063;-84
2021/10/23 13:55:56;;;;;;;19.33;9.57;;;;;;;;;;5021628;28;20064;-85
2021/10/23 13:58:22;;;;;;;18.42;11.70;;;;;;;;;;5039685;28;20029;-84
2021/10/23 14:00:48;;;;;;;10.90;4.20;;;;;;;;;;5039071;28;20029;-85
2021/10/23 14:03:21;;;;;;;12.95;4.57;;;;;;;;;;5021577;28;20028;-84
2021/10/23 14:05:47;;;;;;;;;;;;;;;;;;5039494;28;20048;-84
2021/10/23 14:08:13;;;;;;;8.23;4.25;;;;;;;;;;5038996;28;19911;-84
2021/10/23 14:10:57;;;;;;;12.05;5.57;;;;;;;;;;5039048;28;20057;-85
2021/10/23 14:13:23;;;;;;;10.30;5.38;;;;;;;;;;5021532;28;20037;-85
2021/10/23 14:15:49;;;;;;;12.93;4.68;;;;;;;;;;5039112;28;20315;-84
2021/10/23 14:18:16;;;;;;;9.75;4.85;;;;;;;;;;5038757;28;20400;-84
2021/10/23 14:20:42;;;;;;;21.13;6.95;;;;;;;;;;5037950;28;20032;-84
2021/10/23 14:23:11;;;;;;;28.58;10.60;;;;;;;;;;5019768;28;20360;-85
2021/10/23 14:25:37;;;;;;;18.92;7.30;;;;;;;;;;5019202;28;20030;-85
2021/10/23 14:28:39;;;;;;;16.70;8.20;;;;;;;;;;5018778;28;20034;-86
2021/10/23 14:30:58;;;;;;;17.48;7.18;;;;;;;;;;5018785;28;20056;-86
2021/10/23 14:33:24;;;;;;;17.48;7.22;;;;;;;;;;5001542;28;20068;-85
2021/10/23 14:35:50;;;;;;;12.10;7.10;;;;;;;;;;5000970;28;20124;-85
2021/10/23 14:38:16;;;;;;;16.52;5.75;;;;;;;;;;5019142;28;20105;-85
2021/10/23 14:41:20;;;;;;;16.83;7.53;;;;;;;;;;5018448;28;20026;-86
2021/10/23 14:43:46;;;;;;;16.92;7.55;;;;;;;;;;5000650;28;20034;-86
2021/10/23 14:46:12;;;;;;;18.52;7.15;;;;;;;;;;5018934;28;20018;-85
2021/10/23 14:48:39;;;;;;;15.68;5.32;;;;;;;;;;5018471;28;20404;-85
2021/10/23 14:51:09;;;;;;;17.02;7.00;;;;;;;;;;5000572;28;20490;-84
2021/10/23 14:53:36;;;;;;;39.30;8.60;;;;;;;;;;5018744;28;20040;-85
2021/10/23 15:02:24;;;;;;;16.58;6.25;;;;;;;;;;5018071;28;20056;-85
2021/10/23 15:04:50;;;;;;;11.68;5.05;;;;;;;;;;5000341;28;20034;-85
2021/10/23 15:07:16;;;;;;;13.35;5.97;;;;;;;;;;5000467;28;20080;-85
2021/10/23 15:13:05;;;;;;;9.80;5.82;;;;;;;;;;5018671;28;20359;-86
2021/10/23 15:15:31;;;;;;;13.75;7.15;;;;;;;;;;5018039;28;20022;-86
2021/10/23 15:17:57;;;;;;;19.27;11.98;;;;;;;;;;5018029;28;20029;-86
2021/10/23 15:20:23;;;;;;;19.60;9.80;;;;;;;;;;5018005;28;20392;-86
2021/10/23 15:22:50;;;;;;;18.60;9.93;;;;;;;;;;5018093;28;20022;-86
2021/10/23 15:25:16;;;;;;;24.60;9.75;;;;;;;;;;5000674;28;20072;-84
2021/10/23 15:27:42;;;;;;;24.88;12.00;;;;;;;;;;5018240;28;20378;-87
2021/10/23 15:30:10;;;;;;;21.35;10.88;;;;;;;;;;5017706;28;20134;-86
2021/10/23 15:32:37;;;;;;;21.02;10.82;;;;;;;;;;5017882;28;20436;-87